createdAt,value
2017-11-08T00:00:27.340Z,100975.46
2017-11-08T00:02:54.222Z,100970.31
2017-11-08T00:05:26.275Z,100973.41
2017-11-08T00:07:53.218Z,100971.31
2017-11-08T00:10:20.274Z,100971.89
2017-11-08T00:12:47.179Z,100977.59
2017-11-08T00:15:14.401Z,100968.00
2017-11-08T00:17:49.633Z,100969.66
2017-11-08T00:20:21.759Z,100965.26
2017-11-08T00:22:49.390Z,100970.45
2017-11-08T00:25:20.130Z,100972.92
2017-11-08T00:27:47.674Z,100983.33
2017-11-08T00:30:19.707Z,100991.94
2017-11-08T00:32:47.418Z,100977.19
2017-11-08T00:35:15.086Z,100985.02
2017-11-08T00:37:48.224Z,100981.77
2017-11-08T00:40:15.557Z,100977.09
2017-11-08T00:42:45.435Z,100978.61
2017-11-08T00:45:12.423Z,100983.01
2017-11-08T00:47:39.579Z,100975.83
2017-11-08T00:50:12.643Z,100979.67
2017-11-08T00:52:50.812Z,100976.13
2017-11-08T00:55:18.569Z,100975.17
2017-11-08T00:57:47.097Z,100968.70
2017-11-08T01:00:15.158Z,100974.03
2017-11-08T01:02:48.426Z,100968.03
2017-11-08T01:05:20.500Z,100972.11
2017-11-08T01:07:49.185Z,100967.61
2017-11-08T01:10:16.666Z,100964.16
2017-11-08T01:12:43.531Z,100965.52
2017-11-08T01:15:13.449Z,100971.53
2017-11-08T01:17:41.192Z,100968.98
2017-11-08T01:20:11.044Z,100962.28
2017-11-08T01:22:37.951Z,100962.11
2017-11-08T01:25:06.028Z,100961.06
2017-11-08T01:27:33.630Z,100956.55
2017-11-08T01:30:06.483Z,100953.97
2017-11-08T01:32:33.391Z,100950.59
2017-11-08T01:35:04.269Z,100947.84
2017-11-08T01:37:37.487Z,100952.19
2017-11-08T01:40:09.611Z,100945.69
2017-11-08T01:42:40.056Z,100951.77
2017-11-08T01:45:07.256Z,100951.76
2017-11-08T01:47:34.845Z,100946.18
2017-11-08T01:50:02.592Z,100946.28
2017-11-08T01:52:35.396Z,100941.38
2017-11-08T01:55:03.164Z,100943.29
2017-11-08T01:57:30.918Z,100944.92
2017-11-08T02:00:04.300Z,100954.38
2017-11-08T02:02:36.539Z,100963.78
2017-11-08T02:05:08.871Z,100970.40
2017-11-08T02:07:35.790Z,100968.06
2017-11-08T02:10:03.518Z,100984.91
2017-11-08T02:12:36.184Z,100984.42
2017-11-08T02:15:08.889Z,100987.72
2017-11-08T02:17:42.454Z,100979.00
2017-11-08T02:20:09.457Z,100973.32
2017-11-08T02:22:41.381Z,100971.62
2017-11-08T02:25:12.636Z,100965.03
2017-11-08T02:27:46.953Z,100968.03
2017-11-08T02:30:19.777Z,100967.09
2017-11-08T02:32:52.949Z,100976.92
2017-11-08T02:35:19.930Z,100982.77
2017-11-08T02:37:47.251Z,100970.41
2017-11-08T02:40:14.729Z,100959.14
2017-11-08T02:42:42.655Z,100937.37
2017-11-08T02:45:09.583Z,100945.52
2017-11-08T02:47:37.682Z,100945.55
2017-11-08T02:50:05.479Z,100938.55
2017-11-08T02:52:32.415Z,100936.95
2017-11-08T02:55:11.432Z,100938.11
2017-11-08T02:57:41.586Z,100926.58
2017-11-08T03:00:08.480Z,100930.91
2017-11-08T03:15:50.443Z,100922.48
2017-11-08T03:18:18.063Z,100919.42
2017-11-08T03:20:44.890Z,100919.38
2017-11-08T03:23:11.696Z,100924.41
2017-11-08T03:25:38.513Z,100925.11
2017-11-08T03:28:05.341Z,100927.55
2017-11-08T03:30:32.197Z,100922.22
2017-11-08T03:32:59.088Z,100919.49
2017-11-08T03:35:26.649Z,100920.08
2017-11-08T03:37:53.544Z,100925.25
2017-11-08T03:40:20.383Z,100924.89
2017-11-08T03:42:47.965Z,100926.20
2017-11-08T03:45:15.524Z,100915.83
2017-11-08T03:47:42.361Z,100911.73
2017-11-08T03:50:09.262Z,100913.32
2017-11-08T03:52:36.880Z,100915.55
2017-11-08T03:55:03.755Z,100920.27
2017-11-08T03:57:30.604Z,100919.44
2017-11-08T03:59:57.416Z,100919.69
2017-11-08T04:02:24.980Z,100923.23
2017-11-08T04:04:51.795Z,100913.66
2017-11-08T04:07:18.665Z,100914.64
2017-11-08T04:09:45.509Z,100914.16
2017-11-08T04:12:12.320Z,100927.34
2017-11-08T04:14:39.187Z,100926.09
2017-11-08T04:17:06.008Z,100924.50
2017-11-08T04:19:32.906Z,100921.13
2017-11-08T04:21:59.748Z,100927.69
2017-11-08T04:24:26.587Z,100921.62
2017-11-08T04:26:53.460Z,100922.49
2017-11-08T04:29:20.291Z,100919.82
2017-11-08T04:31:47.110Z,100930.45
2017-11-08T04:34:13.929Z,100934.82
2017-11-08T04:36:41.485Z,100937.11
2017-11-08T04:39:08.330Z,100944.61
2017-11-08T04:41:35.879Z,100946.72
2017-11-08T04:44:02.748Z,100945.98
2017-11-08T04:46:29.651Z,100924.63
2017-11-08T04:48:56.493Z,100920.25
2017-11-08T04:51:23.349Z,100923.13
2017-11-08T04:53:50.977Z,100922.96
2017-11-08T04:56:17.883Z,100928.48
2017-11-08T04:58:44.708Z,100934.64
2017-11-08T05:01:11.554Z,100938.72
2017-11-08T05:03:38.416Z,100934.38
2017-11-08T05:06:05.240Z,100937.48
2017-11-08T05:08:32.821Z,100933.78
2017-11-08T05:11:00.411Z,100932.15
2017-11-08T05:13:27.224Z,100927.83
2017-11-08T05:15:54.084Z,100932.64
2017-11-08T05:18:20.919Z,100914.78
2017-11-08T05:20:47.723Z,100907.78
2017-11-08T05:23:14.526Z,100912.30
2017-11-08T05:25:41.381Z,100904.56
2017-11-08T05:28:08.214Z,100904.12
2017-11-08T05:30:35.807Z,100907.23
2017-11-08T05:33:02.666Z,100908.88
2017-11-08T05:35:29.520Z,100910.58
2017-11-08T05:37:56.337Z,100909.09
2017-11-08T05:40:23.139Z,100914.09
2017-11-08T05:42:50.705Z,100922.66
2017-11-08T05:45:17.546Z,100924.91
2017-11-08T05:47:44.451Z,100921.55
2017-11-08T05:50:11.300Z,100931.42
2017-11-08T05:52:38.877Z,100933.53
2017-11-08T05:55:05.727Z,100925.41
2017-11-08T05:57:32.548Z,100923.12
2017-11-08T05:59:59.382Z,100924.81
2017-11-08T06:02:26.255Z,100933.29
2017-11-08T06:04:53.066Z,100937.95
2017-11-08T06:07:19.884Z,100944.72
2017-11-08T06:09:46.688Z,100948.36
2017-11-08T06:12:13.612Z,100948.63
2017-11-08T06:14:40.412Z,100938.25
2017-11-08T06:17:07.245Z,100940.93
2017-11-08T06:19:34.093Z,100940.05
2017-11-08T06:22:00.974Z,100944.00
2017-11-08T06:24:27.823Z,100958.75
2017-11-08T06:26:54.677Z,100957.05
2017-11-08T06:29:21.515Z,100953.05
2017-11-08T06:31:48.359Z,100959.50
2017-11-08T06:34:15.194Z,100964.42
2017-11-08T06:36:42.061Z,100960.55
2017-11-08T06:39:08.936Z,100966.38
2017-11-08T06:41:37.550Z,100974.84
2017-11-08T06:44:09.640Z,100963.23
2017-11-08T06:46:36.484Z,100961.23
2017-11-08T06:49:04.075Z,100955.95
2017-11-08T06:51:30.885Z,100962.67
2017-11-08T06:53:57.681Z,100969.23
2017-11-08T06:56:25.241Z,100975.84
2017-11-08T06:58:52.490Z,100974.92
2017-11-08T07:01:19.435Z,100981.35
2017-11-08T07:03:46.262Z,100987.87
2017-11-08T07:06:13.850Z,100992.51
2017-11-08T07:08:43.548Z,100993.65
2017-11-08T07:11:11.147Z,100987.70
2017-11-08T07:13:38.713Z,100993.33
2017-11-08T07:16:06.313Z,101003.81
2017-11-08T07:18:33.120Z,101013.92
2017-11-08T07:20:59.956Z,101018.34
2017-11-08T07:23:26.795Z,101021.36
2017-11-08T07:25:53.599Z,101007.75
2017-11-08T07:28:20.404Z,101006.37
2017-11-08T07:30:47.956Z,101011.52
2017-11-08T07:33:14.762Z,101012.61
2017-11-08T07:35:41.599Z,101013.59
2017-11-08T07:38:09.149Z,101013.11
2017-11-08T07:40:35.961Z,101006.48
2017-11-08T07:43:02.906Z,101006.76
2017-11-08T07:45:29.729Z,101012.55
2017-11-08T07:47:56.554Z,101016.44
2017-11-08T07:50:23.400Z,101017.30
2017-11-08T07:52:50.211Z,101018.95
2017-11-08T07:55:21.931Z,101020.78
2017-11-08T07:57:48.809Z,101020.63
2017-11-08T08:00:17.478Z,101027.36
2017-11-08T08:02:45.098Z,101024.39
2017-11-08T08:05:11.953Z,101026.03
2017-11-08T08:07:41.666Z,101035.60
2017-11-08T08:10:08.468Z,101040.75
2017-11-08T08:12:36.215Z,101046.68
2017-11-08T08:15:03.109Z,101050.16
2017-11-08T08:17:29.947Z,101056.23
2017-11-08T08:19:56.797Z,101061.48
2017-11-08T08:22:23.626Z,101068.55
2017-11-08T08:24:52.905Z,101067.34
2017-11-08T08:27:19.949Z,101065.77
2017-11-08T08:29:46.801Z,101068.83
2017-11-08T08:32:13.657Z,101069.59
2017-11-08T08:34:40.526Z,101077.08
2017-11-08T08:37:08.204Z,101071.47
2017-11-08T08:39:36.007Z,101070.90
2017-11-08T08:42:02.890Z,101062.93
2017-11-08T08:44:29.777Z,101062.91
2017-11-08T08:46:57.358Z,101062.86
2017-11-08T08:49:24.976Z,101056.67
2017-11-08T08:51:51.854Z,101055.25
2017-11-08T08:54:20.100Z,101063.50
2017-11-08T08:56:47.611Z,101059.89
2017-11-08T08:59:14.464Z,101062.95
2017-11-08T09:01:41.320Z,101061.57
2017-11-08T09:04:08.210Z,101065.89
2017-11-08T09:06:35.053Z,101071.52
2017-11-08T09:09:01.892Z,101081.36
2017-11-08T09:11:28.706Z,101080.97
2017-11-08T09:13:55.637Z,101077.74
2017-11-08T09:16:22.522Z,101083.92
2017-11-08T09:18:49.411Z,101079.05
2017-11-08T09:21:17.093Z,101076.42
2017-11-08T09:23:44.010Z,101073.36
2017-11-08T09:26:10.957Z,101068.11
2017-11-08T09:28:37.874Z,101061.97
2017-11-08T09:31:04.763Z,101067.43
2017-11-08T09:33:32.450Z,101067.32
2017-11-08T09:35:59.321Z,101073.05
2017-11-08T09:38:26.232Z,101066.82
2017-11-08T09:40:54.169Z,101070.56
2017-11-08T09:43:22.193Z,101058.61
2017-11-08T09:45:49.075Z,101065.99
2017-11-08T09:48:15.967Z,101070.76
2017-11-08T09:50:42.887Z,101070.63
2017-11-08T09:53:09.749Z,101065.38
2017-11-08T09:55:37.343Z,101076.45
2017-11-08T09:58:04.196Z,101087.91
2017-11-08T10:00:31.014Z,101095.66
2017-11-08T10:02:57.841Z,101089.35
2017-11-08T10:05:25.396Z,101092.68
2017-11-08T10:07:52.252Z,101090.93
2017-11-08T10:10:19.504Z,101100.11
2017-11-08T10:12:47.127Z,101103.50
2017-11-08T10:15:13.928Z,101104.56
2017-11-08T10:17:42.429Z,101102.24
2017-11-08T10:20:09.356Z,101101.55
2017-11-08T10:22:36.085Z,101097.30
2017-11-08T10:25:02.944Z,101103.80
2017-11-08T10:27:29.779Z,101104.05
2017-11-08T10:29:56.609Z,101106.88
2017-11-08T10:32:23.412Z,101111.31
2017-11-08T10:34:50.240Z,101111.20
2017-11-08T10:37:17.120Z,101112.52
2017-11-08T10:39:44.024Z,101114.69
2017-11-08T10:42:10.835Z,101111.87
2017-11-08T10:44:37.684Z,101112.19
2017-11-08T10:47:04.536Z,101111.31
2017-11-08T10:49:36.243Z,101103.94
2017-11-08T10:52:03.208Z,101106.00
2017-11-08T10:54:30.113Z,101102.34
2017-11-08T10:56:56.942Z,101098.47
2017-11-08T10:59:27.498Z,101099.27
2017-11-08T11:01:55.344Z,101104.05
2017-11-08T11:04:22.201Z,101099.13
2017-11-08T11:06:49.098Z,101097.17
2017-11-08T11:09:16.695Z,101103.46
2017-11-08T11:11:43.606Z,101098.75
2017-11-08T11:14:10.538Z,101100.05
2017-11-08T11:16:39.227Z,101100.07
2017-11-08T11:19:12.427Z,101097.44
2017-11-08T11:21:39.387Z,101092.66
2017-11-08T11:24:12.120Z,101093.03
2017-11-08T11:26:40.961Z,101097.01
2017-11-08T11:29:07.872Z,101097.48
2017-11-08T11:31:34.774Z,101102.92
2017-11-08T11:34:01.724Z,101106.52
2017-11-08T11:36:28.608Z,101111.51
2017-11-08T11:38:55.528Z,101108.77
2017-11-08T11:41:22.434Z,101110.39
2017-11-08T11:43:49.348Z,101105.57
2017-11-08T11:46:16.251Z,101105.34
2017-11-08T11:48:48.978Z,101110.65
2017-11-08T11:51:15.917Z,101111.19
2017-11-08T11:53:42.869Z,101105.50
2017-11-08T11:56:09.769Z,101102.80
2017-11-08T11:58:36.630Z,101099.66
2017-11-08T12:01:03.597Z,101091.33
2017-11-08T12:03:30.496Z,101091.40
2017-11-08T12:05:57.429Z,101093.21
2017-11-08T12:08:24.366Z,101097.55
2017-11-08T12:10:51.286Z,101097.91
2017-11-08T12:13:18.218Z,101093.97
2017-11-08T12:15:45.118Z,101098.84
2017-11-08T12:18:12.013Z,101104.89
2017-11-08T12:20:38.935Z,101104.37
2017-11-08T12:23:05.826Z,101109.33
2017-11-08T12:25:32.727Z,101108.41
2017-11-08T12:27:59.650Z,101117.61
2017-11-08T12:30:26.537Z,101111.57
2017-11-08T12:32:53.415Z,101106.22
2017-11-08T12:35:20.329Z,101115.07
2017-11-08T12:37:47.229Z,101110.63
2017-11-08T12:40:20.045Z,101101.73
2017-11-08T12:42:48.883Z,101094.66
2017-11-08T12:45:15.850Z,101086.34
2017-11-08T12:47:46.563Z,101085.89
2017-11-08T12:50:19.491Z,101088.02
2017-11-08T12:52:46.361Z,101080.49
2017-11-08T12:55:13.333Z,101081.30
2017-11-08T12:57:45.346Z,101079.16
2017-11-08T13:00:12.260Z,101080.41
2017-11-08T13:02:39.150Z,101079.47
2017-11-08T13:05:06.067Z,101081.66
2017-11-08T13:07:35.973Z,101082.34
2017-11-08T13:10:02.986Z,101087.03
2017-11-08T13:12:29.932Z,101094.34
2017-11-08T13:14:57.645Z,101091.33
2017-11-08T13:17:24.624Z,101095.25
2017-11-08T13:19:51.549Z,101098.77
2017-11-08T13:22:18.463Z,101096.21
2017-11-08T13:24:45.384Z,101095.19
2017-11-08T13:27:12.316Z,101104.77
2017-11-08T13:29:39.240Z,101106.97
2017-11-08T13:32:06.134Z,101105.16
2017-11-08T13:34:33.050Z,101106.41
2017-11-08T13:37:00.033Z,101103.03
2017-11-08T13:39:26.943Z,101106.52
2017-11-08T13:41:54.617Z,101105.09
2017-11-08T13:44:21.540Z,101106.98
2017-11-08T13:46:49.468Z,101104.28
2017-11-08T13:49:16.393Z,101110.34
2017-11-08T13:51:43.296Z,101116.11
2017-11-08T13:54:10.955Z,101126.50
2017-11-08T13:56:37.817Z,101122.55
2017-11-08T13:59:05.041Z,101121.61
2017-11-08T14:01:32.781Z,101122.05
2017-11-08T14:03:59.717Z,101123.82
2017-11-08T14:06:26.694Z,101129.00
2017-11-08T14:08:53.585Z,101130.62
2017-11-08T14:11:22.888Z,101136.55
2017-11-08T14:13:49.674Z,101145.31
2017-11-08T14:16:18.767Z,101150.09
2017-11-08T14:18:45.589Z,101150.20
2017-11-08T14:21:12.400Z,101161.16
2017-11-08T14:23:39.978Z,101151.59
2017-11-08T14:26:07.555Z,101152.47
2017-11-08T14:28:37.420Z,101150.13
2017-11-08T14:31:04.295Z,101144.45
2017-11-08T14:33:31.129Z,101132.65
2017-11-08T14:35:58.081Z,101145.75
2017-11-08T14:38:24.922Z,101153.27
2017-11-08T14:40:51.866Z,101155.52
2017-11-08T14:43:19.128Z,101155.04
2017-11-08T14:45:45.981Z,101154.16
2017-11-08T14:48:12.845Z,101156.84
2017-11-08T14:50:40.109Z,101154.20
2017-11-08T14:53:06.948Z,101154.16
2017-11-08T14:55:33.847Z,101158.16
2017-11-08T14:58:00.678Z,101157.61
2017-11-08T15:00:30.414Z,101152.89
2017-11-08T15:02:58.027Z,101155.04
2017-11-08T15:05:24.907Z,101158.91
2017-11-08T15:07:51.786Z,101150.13
2017-11-08T15:10:18.637Z,101161.86
2017-11-08T15:12:46.369Z,101167.17
2017-11-08T15:15:15.206Z,101180.41
2017-11-08T15:17:44.037Z,101186.11
2017-11-08T15:20:17.688Z,101182.59
2017-11-08T15:22:44.568Z,101190.52
2017-11-08T15:25:11.376Z,101187.56
2017-11-08T15:27:38.925Z,101191.00
2017-11-08T15:30:07.677Z,101192.27
2017-11-08T15:32:36.600Z,101189.70
2017-11-08T15:35:03.527Z,101185.38
2017-11-08T15:37:31.113Z,101188.43
2017-11-08T15:39:58.709Z,101183.56
2017-11-08T15:42:25.513Z,101190.19
2017-11-08T15:44:52.342Z,101183.56
2017-11-08T15:47:19.159Z,101188.76
2017-11-08T15:49:46.780Z,101187.44
2017-11-08T15:52:13.672Z,101191.84
2017-11-08T15:54:41.284Z,101195.41
2017-11-08T15:57:08.856Z,101191.06
2017-11-08T15:59:36.542Z,101197.64
2017-11-08T16:02:08.266Z,101204.61
2017-11-08T16:04:39.155Z,101204.16
2017-11-08T16:07:06.212Z,101205.42
2017-11-08T16:09:33.046Z,101201.59
2017-11-08T16:11:59.853Z,101203.74
2017-11-08T16:14:27.642Z,101208.55
2017-11-08T16:16:55.228Z,101205.95
2017-11-08T16:19:22.836Z,101208.01
2017-11-08T16:21:49.984Z,101207.61
2017-11-08T16:24:16.836Z,101213.63
2017-11-08T16:26:44.758Z,101218.96
2017-11-08T16:29:11.748Z,101225.05
2017-11-08T16:31:38.634Z,101230.31
2017-11-08T16:34:06.228Z,101227.25
2017-11-08T16:36:33.820Z,101226.42
2017-11-08T16:39:00.774Z,101221.52
2017-11-08T16:41:27.634Z,101218.52
2017-11-08T16:43:54.479Z,101212.39
2017-11-08T16:46:22.057Z,101208.44
2017-11-08T16:48:49.683Z,101212.87
2017-11-08T16:51:16.776Z,101210.19
2017-11-08T16:53:43.628Z,101217.20
2017-11-08T16:56:10.481Z,101215.91
2017-11-08T16:58:37.397Z,101223.78
2017-11-08T17:01:04.563Z,101224.61
2017-11-08T17:03:32.293Z,101221.98
2017-11-08T17:05:59.157Z,101234.25
2017-11-08T17:08:25.991Z,101239.08
2017-11-08T17:10:53.156Z,101246.11
2017-11-08T17:13:20.450Z,101251.81
2017-11-08T17:15:47.493Z,101250.44
2017-11-08T17:18:14.420Z,101256.20
2017-11-08T17:20:41.298Z,101258.81
2017-11-08T17:23:08.904Z,101264.91
2017-11-08T17:25:36.319Z,101259.19
2017-11-08T17:28:03.421Z,101263.02
2017-11-08T17:30:30.996Z,101271.42
2017-11-08T17:32:58.628Z,101270.56
2017-11-08T17:35:25.450Z,101271.85
2017-11-08T17:37:52.281Z,101271.41
2017-11-08T17:40:19.133Z,101270.98
2017-11-08T17:42:45.940Z,101277.94
2017-11-08T17:45:12.781Z,101275.81
2017-11-08T17:47:39.658Z,101279.75
2017-11-08T17:50:06.504Z,101284.64
2017-11-08T17:52:34.113Z,101282.03
2017-11-08T17:55:00.964Z,101285.53
2017-11-08T17:57:27.786Z,101284.67
2017-11-08T17:59:54.637Z,101286.91
2017-11-08T18:02:21.518Z,101285.10
2017-11-08T18:04:49.087Z,101289.91
2017-11-08T18:07:16.683Z,101286.34
2017-11-08T18:09:44.259Z,101291.60
2017-11-08T18:12:11.848Z,101285.90
2017-11-08T18:14:39.736Z,101291.16
2017-11-08T18:17:06.622Z,101289.36
2017-11-08T18:19:34.222Z,101288.97
2017-11-08T18:22:01.062Z,101292.54
2017-11-08T18:24:27.906Z,101299.50
2017-11-08T18:26:54.744Z,101305.60
2017-11-08T18:29:22.309Z,101303.45
2017-11-08T18:31:49.175Z,101296.05
2017-11-08T18:34:16.767Z,101302.13
2017-11-08T18:36:44.375Z,101300.81
2017-11-08T18:39:11.551Z,101306.09
2017-11-08T18:41:38.408Z,101300.44
2017-11-08T18:44:05.270Z,101305.72
2017-11-08T18:46:32.142Z,101307.86
2017-11-08T18:48:59.485Z,101312.73
2017-11-08T18:51:26.781Z,101315.37
2017-11-08T18:53:53.651Z,101311.44
2017-11-08T18:56:21.660Z,101321.91
2017-11-08T18:58:49.393Z,101319.70
2017-11-08T19:01:16.890Z,101327.16
2017-11-08T19:03:44.823Z,101328.09
2017-11-08T19:06:11.807Z,101338.19
2017-11-08T19:08:39.415Z,101335.13
2017-11-08T19:11:06.315Z,101330.74
2017-11-08T19:13:34.188Z,101339.15
2017-11-08T19:16:01.868Z,101336.89
2017-11-08T19:18:28.810Z,101340.34
2017-11-08T19:20:55.669Z,101342.64
2017-11-08T19:23:22.548Z,101343.97
2017-11-08T19:25:49.944Z,101340.47
2017-11-08T19:28:16.820Z,101337.38
2017-11-08T19:30:45.807Z,101342.22
2017-11-08T19:33:13.134Z,101339.64
2017-11-08T19:35:40.772Z,101340.47
2017-11-08T19:38:07.826Z,101339.57
2017-11-08T19:40:34.939Z,101345.73
2017-11-08T19:43:01.826Z,101344.52
2017-11-08T19:45:30.241Z,101350.72
2017-11-08T19:47:57.543Z,101347.22
2017-11-08T19:50:26.491Z,101350.17
2017-11-08T19:52:54.204Z,101349.29
2017-11-08T19:55:22.092Z,101344.15
2017-11-08T19:57:49.249Z,101349.05
2017-11-08T20:00:16.502Z,101353.05
2017-11-08T20:02:44.673Z,101360.07
2017-11-08T20:05:13.275Z,101360.39
2017-11-08T20:07:41.186Z,101359.95
2017-11-08T20:10:09.987Z,101362.63
2017-11-08T20:12:38.494Z,101356.32
2017-11-08T20:15:07.673Z,101356.38
2017-11-08T20:17:36.794Z,101355.62
2017-11-08T20:20:04.721Z,101352.44
2017-11-08T20:22:33.068Z,101351.30
2017-11-08T20:25:01.207Z,101351.29
2017-11-08T20:27:30.011Z,101349.55
2017-11-08T20:29:59.056Z,101354.75
2017-11-08T20:32:28.581Z,101353.98
2017-11-08T20:34:57.366Z,101356.56
2017-11-08T20:37:26.079Z,101355.20
2017-11-08T20:40:00.084Z,101354.92
2017-11-08T20:42:28.284Z,101353.67
2017-11-08T20:44:56.366Z,101355.73
2017-11-08T20:47:28.209Z,101349.66
2017-11-08T20:49:55.584Z,101351.41
2017-11-08T20:52:24.568Z,101348.78
2017-11-08T20:54:51.631Z,101353.09
2017-11-08T20:57:18.672Z,101350.85
2017-11-08T20:59:47.197Z,101352.62
2017-11-08T21:02:15.173Z,101357.49
2017-11-08T21:04:42.541Z,101348.80
2017-11-08T21:07:11.935Z,101353.80
2017-11-08T21:09:40.915Z,101352.85
2017-11-08T21:12:08.102Z,101348.02
2017-11-08T21:14:35.077Z,101354.99
2017-11-08T21:17:01.960Z,101351.97
2017-11-08T21:19:29.069Z,101352.98
2017-11-08T21:21:56.033Z,101361.81
2017-11-08T21:24:22.933Z,101366.63
2017-11-08T21:26:50.608Z,101368.51
2017-11-08T21:29:17.586Z,101373.86
2017-11-08T21:31:44.586Z,101367.89
2017-11-08T21:34:12.060Z,101360.06
2017-11-08T21:36:40.869Z,101360.55
2017-11-08T21:39:08.679Z,101353.55
2017-11-08T21:41:37.490Z,101352.22
2017-11-08T21:44:04.501Z,101355.80
2017-11-08T21:46:31.478Z,101359.61
2017-11-08T21:48:59.799Z,101364.99
2017-11-08T21:51:26.681Z,101365.50
2017-11-08T21:53:53.567Z,101363.80
2017-11-08T21:56:21.218Z,101365.80
2017-11-08T21:58:48.096Z,101365.58
2017-11-08T22:01:15.054Z,101363.06
2017-11-08T22:03:42.275Z,101365.94
2017-11-08T22:06:09.257Z,101368.25
2017-11-08T22:08:36.680Z,101370.92
2017-11-08T22:11:03.592Z,101373.28
2017-11-08T22:13:30.465Z,101369.88
2017-11-08T22:15:57.982Z,101370.70
2017-11-08T22:18:24.843Z,101383.05
2017-11-08T22:20:52.002Z,101377.83
2017-11-08T22:23:19.095Z,101377.23
2017-11-08T22:25:46.187Z,101379.80
2017-11-08T22:28:14.626Z,101371.69
2017-11-08T22:30:43.631Z,101368.29
2017-11-08T22:33:11.390Z,101362.61
2017-11-08T22:35:38.890Z,101368.37
2017-11-08T22:38:06.036Z,101365.78
2017-11-08T22:40:33.077Z,101370.56
2017-11-08T22:43:00.944Z,101367.04
2017-11-08T22:45:27.931Z,101369.61
2017-11-08T22:47:56.259Z,101371.31
2017-11-08T22:50:23.239Z,101365.11
2017-11-08T22:52:51.711Z,101362.87
2017-11-08T22:55:18.909Z,101360.68
2017-11-08T22:57:45.882Z,101358.44
2017-11-08T23:00:13.707Z,101356.73
2017-11-08T23:02:41.472Z,101357.61
2017-11-08T23:05:09.171Z,101351.86
2017-11-08T23:07:38.146Z,101351.46
2017-11-08T23:10:05.126Z,101356.34
2017-11-08T23:12:34.245Z,101354.58
2017-11-08T23:15:02.504Z,101364.19
2017-11-08T23:17:29.429Z,101358.91
2017-11-08T23:19:56.694Z,101352.29
2017-11-08T23:22:24.352Z,101361.05
2017-11-08T23:24:52.554Z,101355.36
2017-11-08T23:27:19.588Z,101351.91
2017-11-08T23:29:46.554Z,101358.48
2017-11-08T23:32:13.595Z,101351.29
2017-11-08T23:34:41.718Z,101353.22
2017-11-08T23:37:08.585Z,101348.47
2017-11-08T23:39:35.413Z,101343.00
2017-11-08T23:42:02.254Z,101347.27
2017-11-08T23:44:29.138Z,101354.05
2017-11-08T23:46:55.959Z,101353.70
2017-11-08T23:49:22.828Z,101356.84
2017-11-08T23:51:49.930Z,101359.97
2017-11-08T23:54:16.784Z,101356.89
2017-11-08T23:56:44.287Z,101368.19
2017-11-08T23:59:17.546Z,101370.25
